Headlee Ranch, South Dakota
Current Conditions -  °F | °C
As of 5:55 AM on Wednesday 22 Oct 2014 (Local Time) from KPHP Reporting Station
Light Rain Light Rain  
Wind Chill: 13°   Ceiling: 9000
Heat Index: 13°   Visibility: 10mi
Dew Point:   Wind: 14mph
Humidity: 62%   Direction: 310°NW
Pressure: 29.9"   Gusts: 21mph
Location:  43.7587°N, 101.898°W
Report Text: KPHP 221155Z AUTO 31012G18KT 10SM -RA OVC090 13/06 A2990 RMK AO2 RAB21 SLP111 P0000 60000 T01330061 10211 20133 53039
Loading
Personal Weather Stations






























Interactive Weather Map
Tropical Storm Tracking
New forecast layout! Learn more

10-Day Weather Forecast

Advertisements
Track Severe Weather on mobile